Terminal Aerodrome Forecast
Issued by NWS Upton, NY

Home | Current Version | Previous Version | Text Only | Print | Product List | Glossary On
Versions: 1 2 3 4 5 6 7 8 9 10 11 12 13 14 15 16 17 18 19 20 21 22 23 24 25
000
FTUS41 KOKX 271400 AAA
TAFISP
TAF AMD
KISP 271423Z 2714/2812 35009KT P6SM SCT150 SCT250
     FM271800 33008KT P6SM SCT030 BKN050
     FM272300 33006KT P6SM SCT035
     FM280600 34006KT P6SM SCT250=

USA.gov is the U.S. government's official web portal to all federal, state and local government web resources and services.